createdAt,value
2023-02-26T00:01:42.852Z,13.20
2023-02-26T00:04:10.759Z,13.20
2023-02-26T00:06:53.188Z,13.20
2023-02-26T00:09:23.893Z,13.10
2023-02-26T00:11:51.219Z,13.10
2023-02-26T00:14:19.197Z,13.00
2023-02-26T00:16:52.157Z,13.00
2023-02-26T00:19:20.243Z,13.00
2023-02-26T00:21:48.257Z,13.00
2023-02-26T00:24:16.759Z,13.00
2023-02-26T00:26:45.024Z,13.00
2023-02-26T00:29:12.876Z,13.00
2023-02-26T00:31:40.423Z,13.00
2023-02-26T00:34:14.031Z,12.90
2023-02-26T00:36:46.429Z,12.80
2023-02-26T00:39:32.451Z,12.80
2023-02-26T00:41:59.808Z,12.80
2023-02-26T00:44:27.465Z,12.70
2023-02-26T00:47:06.513Z,12.70
2023-02-26T00:50:06.998Z,12.60
2023-02-26T00:53:04.283Z,12.60
2023-02-26T00:55:31.989Z,12.50
2023-02-26T00:57:59.603Z,12.40
2023-02-26T01:00:27.342Z,12.40
2023-02-26T01:02:57.115Z,12.30
2023-02-26T01:05:24.630Z,12.30
2023-02-26T01:08:09.467Z,12.30
2023-02-26T01:10:38.124Z,12.30
2023-02-26T01:13:05.486Z,12.20
2023-02-26T01:15:33.969Z,12.20
2023-02-26T01:18:05.929Z,12.20
2023-02-26T01:20:59.361Z,12.10
2023-02-26T01:23:29.185Z,12.10
2023-02-26T01:26:00.119Z,12.10
2023-02-26T01:28:27.829Z,12.00
2023-02-26T01:31:01.209Z,12.00
2023-02-26T01:33:36.435Z,12.00
2023-02-26T01:36:24.403Z,12.00
2023-02-26T01:39:12.469Z,12.00
2023-02-26T01:42:03.689Z,11.90
2023-02-26T01:44:40.486Z,11.90
2023-02-26T01:47:43.396Z,11.90
2023-02-26T01:50:16.391Z,11.90
2023-02-26T01:52:50.470Z,11.90
2023-02-26T01:55:21.490Z,11.90
2023-02-26T01:57:51.061Z,11.90
2023-02-26T02:00:19.774Z,12.00
2023-02-26T02:02:47.325Z,11.90
2023-02-26T02:05:35.897Z,12.00
2023-02-26T02:08:03.336Z,12.00
2023-02-26T02:10:30.689Z,12.00
2023-02-26T02:13:11.487Z,12.00
2023-02-26T02:15:54.985Z,12.00
2023-02-26T02:18:55.141Z,11.90
2023-02-26T02:22:03.679Z,11.90
2023-02-26T02:25:08.343Z,11.80
2023-02-26T02:27:48.004Z,11.80
2023-02-26T02:30:24.081Z,11.70
2023-02-26T02:33:15.054Z,11.60
2023-02-26T02:35:49.487Z,11.60
2023-02-26T02:38:42.745Z,11.60
2023-02-26T02:41:17.204Z,11.50
2023-02-26T02:43:46.835Z,11.50
2023-02-26T02:46:25.268Z,11.40
2023-02-26T02:49:20.659Z,11.40
2023-02-26T02:51:54.479Z,11.40
2023-02-26T02:54:43.484Z,11.30
2023-02-26T02:57:21.733Z,11.30
2023-02-26T02:59:58.132Z,11.20
2023-02-26T03:02:53.408Z,11.00
2023-02-26T03:05:20.547Z,10.50
2023-02-26T03:08:00.930Z,10.00
2023-02-26T03:10:29.004Z,9.70
2023-02-26T03:12:56.223Z,9.40
2023-02-26T03:15:43.592Z,9.20
2023-02-26T03:18:25.198Z,9.00
2023-02-26T03:21:04.944Z,8.90
2023-02-26T03:23:44.594Z,8.80
2023-02-26T03:26:38.159Z,8.70
2023-02-26T03:29:11.028Z,8.60
2023-02-26T03:32:04.730Z,8.60
2023-02-26T03:34:49.205Z,8.50
2023-02-26T03:37:38.850Z,8.40
2023-02-26T03:40:16.999Z,8.40
2023-02-26T03:43:08.083Z,8.40
2023-02-26T03:45:40.634Z,8.30
2023-02-26T03:48:11.924Z,8.30
2023-02-26T03:50:49.997Z,8.30
2023-02-26T03:53:34.856Z,8.20
2023-02-26T03:56:23.253Z,8.20
2023-02-26T03:59:26.511Z,8.10
2023-02-26T04:02:22.829Z,8.10
2023-02-26T04:05:11.049Z,8.00
2023-02-26T04:07:40.465Z,8.00
2023-02-26T04:10:10.544Z,7.90
2023-02-26T04:12:38.072Z,7.90
2023-02-26T04:15:09.871Z,7.90
2023-02-26T04:17:37.555Z,7.90
2023-02-26T04:20:10.053Z,7.80
2023-02-26T04:22:38.453Z,7.80
2023-02-26T04:25:06.199Z,7.80
2023-02-26T04:27:34.005Z,7.70
2023-02-26T04:30:01.804Z,7.70
2023-02-26T04:32:29.910Z,7.70
2023-02-26T04:34:56.974Z,7.60
2023-02-26T04:37:24.625Z,7.60
2023-02-26T04:39:51.966Z,7.60
2023-02-26T04:42:19.104Z,7.60
2023-02-26T04:44:46.271Z,7.60
2023-02-26T04:47:14.455Z,7.60
2023-02-26T04:49:42.677Z,7.60
2023-02-26T04:52:10.146Z,7.50
2023-02-26T04:54:40.772Z,7.50
2023-02-26T04:57:09.346Z,7.50
2023-02-26T04:59:39.169Z,7.40
2023-02-26T05:02:08.243Z,7.40
2023-02-26T05:04:39.455Z,7.40
2023-02-26T05:07:08.038Z,7.30
2023-02-26T05:09:35.076Z,7.30
2023-02-26T05:12:02.171Z,7.30
2023-02-26T05:14:29.683Z,7.30
2023-02-26T05:16:58.216Z,7.30
2023-02-26T05:19:25.260Z,7.20
2023-02-26T05:21:52.357Z,7.20
2023-02-26T05:24:19.422Z,7.20
2023-02-26T05:26:47.066Z,7.20
2023-02-26T05:29:14.206Z,7.20
2023-02-26T05:31:42.211Z,7.20
2023-02-26T05:34:12.404Z,7.20
2023-02-26T05:36:39.326Z,7.20
2023-02-26T05:39:06.205Z,7.20
2023-02-26T05:41:33.385Z,7.10
2023-02-26T05:44:00.397Z,7.10
2023-02-26T05:46:28.002Z,7.10
2023-02-26T05:48:55.244Z,7.00
2023-02-26T05:51:23.672Z,7.00
2023-02-26T05:53:50.865Z,6.90
2023-02-26T05:56:18.101Z,6.90
2023-02-26T05:58:45.265Z,6.80
2023-02-26T06:01:12.578Z,6.80
2023-02-26T06:03:44.263Z,6.80
2023-02-26T06:06:13.000Z,6.90
2023-02-26T06:08:40.415Z,6.90
2023-02-26T06:11:07.513Z,6.90
2023-02-26T06:13:34.484Z,6.90
2023-02-26T06:16:01.584Z,6.90
2023-02-26T06:18:28.903Z,6.90
2023-02-26T06:20:55.968Z,6.90
2023-02-26T06:23:23.016Z,7.00
2023-02-26T06:25:53.208Z,7.00
2023-02-26T06:28:21.700Z,7.00
2023-02-26T06:30:48.813Z,7.00
2023-02-26T06:33:17.093Z,7.10
2023-02-26T06:35:44.190Z,7.10
2023-02-26T06:38:11.733Z,7.10
2023-02-26T06:40:39.123Z,7.10
2023-02-26T06:43:06.321Z,7.00
2023-02-26T06:45:33.432Z,7.00
2023-02-26T06:48:00.894Z,6.90
2023-02-26T06:50:28.501Z,6.90
2023-02-26T06:52:55.669Z,6.80
2023-02-26T06:55:26.989Z,6.80
2023-02-26T06:57:55.303Z,6.80
2023-02-26T07:00:24.730Z,6.80
2023-02-26T07:02:52.773Z,6.80
2023-02-26T07:05:22.401Z,6.80
2023-02-26T07:07:49.534Z,6.90
2023-02-26T07:10:16.569Z,6.90
2023-02-26T07:12:43.991Z,6.90
2023-02-26T07:15:11.103Z,6.90
2023-02-26T07:17:38.303Z,7.00
2023-02-26T07:20:10.215Z,7.00
2023-02-26T07:22:38.221Z,7.10
2023-02-26T07:25:07.622Z,7.10
2023-02-26T07:27:35.505Z,7.10
2023-02-26T07:30:03.913Z,7.20
2023-02-26T07:32:31.193Z,7.20
2023-02-26T07:34:59.783Z,7.30
2023-02-26T07:37:27.336Z,7.30
2023-02-26T07:39:54.666Z,7.30
2023-02-26T07:42:21.662Z,7.40
2023-02-26T07:44:48.781Z,7.40
2023-02-26T07:47:16.242Z,7.40
2023-02-26T07:49:43.300Z,7.50
2023-02-26T07:52:10.680Z,7.50
2023-02-26T07:54:38.187Z,7.50
2023-02-26T07:57:05.861Z,7.60
2023-02-26T07:59:33.268Z,7.60
2023-02-26T08:02:00.449Z,7.70
2023-02-26T08:04:27.636Z,7.70
2023-02-26T08:06:54.812Z,7.70
2023-02-26T08:09:22.184Z,7.80
2023-02-26T08:11:49.759Z,7.80
2023-02-26T08:14:19.437Z,7.80
2023-02-26T08:16:46.572Z,7.90
2023-02-26T08:19:13.943Z,7.90
2023-02-26T08:21:41.477Z,7.90
2023-02-26T08:24:10.707Z,8.00
2023-02-26T08:26:38.476Z,8.00
2023-02-26T08:29:06.506Z,8.00
2023-02-26T08:31:35.749Z,8.00
2023-02-26T08:34:03.173Z,8.00
2023-02-26T08:36:32.248Z,8.10
2023-02-26T08:39:01.517Z,8.10
2023-02-26T08:41:30.745Z,8.00
2023-02-26T08:44:00.018Z,8.10
2023-02-26T08:46:28.038Z,8.10
2023-02-26T08:48:55.336Z,8.10
2023-02-26T08:51:23.179Z,8.10
2023-02-26T08:53:51.387Z,8.10
2023-02-26T08:56:18.922Z,8.10
2023-02-26T08:58:45.908Z,8.00
2023-02-26T09:01:13.028Z,7.90
2023-02-26T09:03:41.186Z,7.80
2023-02-26T09:06:08.126Z,7.70
2023-02-26T09:08:35.218Z,7.70
2023-02-26T09:11:04.135Z,7.60
2023-02-26T09:13:31.271Z,7.50
2023-02-26T09:15:59.676Z,7.60
2023-02-26T09:18:27.103Z,7.50
2023-02-26T09:20:54.157Z,7.60
2023-02-26T09:23:21.264Z,7.60
2023-02-26T09:25:55.799Z,7.60
2023-02-26T09:28:24.303Z,7.60
2023-02-26T09:30:57.376Z,7.70
2023-02-26T09:33:24.554Z,7.70
2023-02-26T09:35:52.560Z,7.70
2023-02-26T09:38:20.259Z,7.70
2023-02-26T09:41:04.435Z,7.70
2023-02-26T09:44:08.798Z,7.70
2023-02-26T09:46:41.826Z,7.70
2023-02-26T09:49:39.781Z,7.70
2023-02-26T09:52:17.332Z,7.80
2023-02-26T09:54:48.999Z,7.80
2023-02-26T09:57:46.278Z,7.80
2023-02-26T10:01:12.529Z,7.90
2023-02-26T10:04:11.981Z,7.90
2023-02-26T10:06:55.237Z,8.00
2023-02-26T10:09:48.996Z,7.90
2023-02-26T10:12:22.657Z,8.00
2023-02-26T10:15:01.866Z,8.00
2023-02-26T10:17:46.795Z,7.90
2023-02-26T10:20:55.775Z,7.90
2023-02-26T10:23:44.067Z,7.80
2023-02-26T10:26:27.231Z,7.80
2023-02-26T10:29:25.440Z,7.70
2023-02-26T10:32:18.151Z,7.50
2023-02-26T10:35:04.379Z,7.40
2023-02-26T10:38:02.996Z,7.20
2023-02-26T10:40:51.984Z,7.00
2023-02-26T10:43:37.782Z,6.80
2023-02-26T10:46:14.278Z,6.80
2023-02-26T10:49:09.088Z,6.80
2023-02-26T10:51:38.563Z,6.80
2023-02-26T10:54:11.519Z,6.80
2023-02-26T10:56:41.124Z,6.80
2023-02-26T10:59:08.224Z,6.80
2023-02-26T11:01:36.853Z,6.80
2023-02-26T11:04:13.574Z,6.80
2023-02-26T11:06:57.669Z,6.80
2023-02-26T11:09:39.666Z,6.80
2023-02-26T11:12:15.780Z,6.80
2023-02-26T11:14:44.672Z,6.90
2023-02-26T11:17:23.225Z,6.90
2023-02-26T11:20:02.214Z,7.00
2023-02-26T11:22:34.035Z,7.00
2023-02-26T11:25:01.466Z,7.00
2023-02-26T11:27:37.395Z,7.00
2023-02-26T11:30:15.237Z,6.90
2023-02-26T11:32:45.563Z,6.90
2023-02-26T11:35:15.127Z,6.90
2023-02-26T11:37:48.910Z,6.90
2023-02-26T11:40:24.926Z,6.90
2023-02-26T11:42:59.333Z,6.80
2023-02-26T11:45:26.908Z,6.80
2023-02-26T11:48:04.340Z,6.80
2023-02-26T11:50:38.669Z,6.70
2023-02-26T11:53:08.501Z,6.70
2023-02-26T11:55:48.044Z,6.60
2023-02-26T11:58:25.445Z,6.60
2023-02-26T12:00:54.851Z,6.60
2023-02-26T12:03:31.392Z,6.60
2023-02-26T12:06:01.466Z,6.50
2023-02-26T12:08:38.779Z,6.50
2023-02-26T12:11:23.926Z,6.40
2023-02-26T12:14:15.382Z,6.30
2023-02-26T12:17:13.121Z,6.30
2023-02-26T12:19:51.609Z,6.20
2023-02-26T12:22:47.095Z,6.10
2023-02-26T12:25:32.857Z,6.10
2023-02-26T12:28:18.238Z,6.10
2023-02-26T12:31:15.851Z,6.10
2023-02-26T12:34:01.854Z,6.10
2023-02-26T12:36:55.784Z,6.10
2023-02-26T12:39:36.242Z,6.00
2023-02-26T12:42:09.250Z,6.00
2023-02-26T12:44:49.833Z,6.00
2023-02-26T12:47:52.455Z,6.00
2023-02-26T12:50:44.003Z,6.00
2023-02-26T12:53:36.457Z,6.00
2023-02-26T12:56:28.268Z,6.00
2023-02-26T12:59:17.276Z,6.10
2023-02-26T13:02:22.184Z,6.10
2023-02-26T13:05:24.331Z,6.10
2023-02-26T13:07:56.560Z,6.10
2023-02-26T13:10:34.977Z,6.10
2023-02-26T13:13:20.829Z,6.20
2023-02-26T13:16:07.583Z,6.20
2023-02-26T13:18:43.584Z,6.20
2023-02-26T13:21:21.362Z,6.30
2023-02-26T13:23:51.544Z,6.30
2023-02-26T13:26:19.150Z,6.30
2023-02-26T13:29:12.875Z,6.30
2023-02-26T13:31:48.894Z,6.30
2023-02-26T13:34:23.180Z,6.30
2023-02-26T13:36:51.961Z,6.30
2023-02-26T13:39:39.718Z,6.30
2023-02-26T13:42:11.262Z,6.20
2023-02-26T13:44:53.400Z,6.20
2023-02-26T13:47:26.354Z,6.20
2023-02-26T13:50:02.781Z,6.30
2023-02-26T13:52:34.469Z,6.30
2023-02-26T13:55:04.228Z,6.30
2023-02-26T13:57:48.803Z,6.30
2023-02-26T14:00:48.036Z,6.40
2023-02-26T14:03:18.122Z,6.40
2023-02-26T14:06:15.163Z,6.40
2023-02-26T14:08:47.723Z,6.40
2023-02-26T14:11:18.207Z,6.40
2023-02-26T14:14:18.282Z,6.40
2023-02-26T14:16:53.060Z,6.40
2023-02-26T14:19:42.432Z,6.40
2023-02-26T14:22:36.345Z,6.50
2023-02-26T14:25:06.166Z,6.50
2023-02-26T14:27:36.600Z,6.50
2023-02-26T14:30:09.996Z,6.50
2023-02-26T14:32:46.505Z,6.60
2023-02-26T14:35:32.058Z,6.60
2023-02-26T14:38:05.720Z,6.60
2023-02-26T14:40:46.573Z,6.60
2023-02-26T14:43:21.379Z,6.70
2023-02-26T14:45:50.421Z,6.70
2023-02-26T14:48:22.222Z,6.70
2023-02-26T14:51:08.320Z,6.70
2023-02-26T14:54:18.166Z,6.80
2023-02-26T14:56:52.481Z,6.80
2023-02-26T14:59:35.429Z,6.80
2023-02-26T15:02:25.632Z,6.80
2023-02-26T15:05:11.148Z,6.80
2023-02-26T15:08:04.611Z,6.90
2023-02-26T15:10:40.819Z,6.90
2023-02-26T15:13:45.447Z,6.90
2023-02-26T15:16:31.757Z,6.90
2023-02-26T15:19:10.720Z,6.90
2023-02-26T15:21:53.214Z,6.90
2023-02-26T15:24:20.358Z,6.90
2023-02-26T15:26:53.883Z,6.90
2023-02-26T15:29:28.509Z,6.90
2023-02-26T15:32:05.746Z,6.90
2023-02-26T15:34:34.145Z,6.90
2023-02-26T15:37:01.601Z,6.90
2023-02-26T15:39:29.344Z,6.90
2023-02-26T15:41:57.732Z,6.90
2023-02-26T15:44:32.462Z,6.90
2023-02-26T15:47:04.993Z,6.90
2023-02-26T15:49:42.228Z,6.90
2023-02-26T15:52:15.773Z,6.90
2023-02-26T15:54:48.252Z,6.90
2023-02-26T15:57:16.536Z,6.90
2023-02-26T15:59:49.867Z,6.90
2023-02-26T16:02:26.406Z,6.90
2023-02-26T16:04:53.493Z,6.90
2023-02-26T16:07:20.660Z,6.80
2023-02-26T16:09:51.798Z,6.80
2023-02-26T16:12:32.815Z,6.80
2023-02-26T16:15:05.068Z,6.80
2023-02-26T16:17:38.904Z,6.80
2023-02-26T16:20:17.528Z,6.70
2023-02-26T16:22:54.024Z,6.70
2023-02-26T16:25:49.129Z,6.60
2023-02-26T16:28:23.909Z,6.60
2023-02-26T16:30:54.902Z,6.60
2023-02-26T16:33:24.173Z,6.60
2023-02-26T16:36:03.013Z,6.50
2023-02-26T16:38:46.080Z,6.50
2023-02-26T16:41:15.130Z,6.50
2023-02-26T16:43:45.116Z,6.50
2023-02-26T16:46:17.117Z,6.40
2023-02-26T16:48:48.729Z,6.40
2023-02-26T16:51:20.621Z,6.40
2023-02-26T16:53:52.799Z,6.40
2023-02-26T16:56:24.175Z,6.40
2023-02-26T16:59:18.831Z,6.30
2023-02-26T17:01:57.609Z,6.30
2023-02-26T17:04:28.996Z,6.20
2023-02-26T17:06:57.000Z,6.10
2023-02-26T17:09:44.974Z,6.10
2023-02-26T17:12:15.053Z,6.10
2023-02-26T17:14:53.607Z,6.00
2023-02-26T17:17:20.925Z,6.00
2023-02-26T17:19:47.859Z,6.00
2023-02-26T17:22:18.095Z,6.00
2023-02-26T17:24:48.442Z,5.90
2023-02-26T17:27:22.282Z,5.90
2023-02-26T17:29:51.249Z,6.00
2023-02-26T17:32:22.058Z,5.90
2023-02-26T17:34:51.627Z,5.90
2023-02-26T17:37:19.111Z,5.90
2023-02-26T17:39:46.965Z,5.90
2023-02-26T17:42:17.524Z,5.90
2023-02-26T17:44:45.141Z,5.90
2023-02-26T17:47:23.973Z,5.90
2023-02-26T17:49:52.156Z,5.90
2023-02-26T17:52:19.580Z,5.90
2023-02-26T17:54:47.267Z,5.90
2023-02-26T17:57:21.305Z,5.90
2023-02-26T17:59:49.568Z,5.90
2023-02-26T18:02:27.795Z,5.80
2023-02-26T18:04:55.106Z,5.80
2023-02-26T18:07:24.766Z,5.80
2023-02-26T18:09:53.154Z,5.80
2023-02-26T18:12:22.095Z,5.80
2023-02-26T18:14:49.695Z,5.70
2023-02-26T18:17:24.116Z,5.70
2023-02-26T18:19:51.589Z,5.70
2023-02-26T18:22:20.650Z,5.70
2023-02-26T18:24:47.823Z,5.70
2023-02-26T18:27:20.066Z,5.70
2023-02-26T18:29:47.570Z,5.70
2023-02-26T18:32:16.827Z,5.60
2023-02-26T18:34:44.306Z,5.60
2023-02-26T18:37:15.608Z,5.60
2023-02-26T18:39:44.042Z,5.60
2023-02-26T18:42:37.111Z,5.50
2023-02-26T18:45:04.801Z,5.50
2023-02-26T18:47:31.739Z,5.50
2023-02-26T18:50:00.327Z,5.40
2023-02-26T18:52:27.333Z,5.40
2023-02-26T18:54:55.740Z,5.40
2023-02-26T18:57:23.475Z,5.40
2023-02-26T18:59:51.253Z,5.40
2023-02-26T19:02:18.318Z,5.30
2023-02-26T19:04:47.183Z,5.30
2023-02-26T19:07:14.643Z,5.30
2023-02-26T19:09:47.909Z,5.30
2023-02-26T19:12:18.983Z,5.20
2023-02-26T19:14:49.586Z,5.20
2023-02-26T19:17:16.591Z,5.20
2023-02-26T19:19:44.000Z,5.20
2023-02-26T19:22:14.548Z,5.10
2023-02-26T19:24:42.725Z,5.20
2023-02-26T19:27:10.641Z,5.10
2023-02-26T19:29:39.815Z,5.10
2023-02-26T19:32:08.436Z,5.10
2023-02-26T19:34:36.260Z,5.10
2023-02-26T19:37:03.258Z,5.10
2023-02-26T19:39:31.297Z,5.10
2023-02-26T19:41:58.845Z,5.10
2023-02-26T19:44:27.651Z,5.10
2023-02-26T19:46:55.297Z,5.10
2023-02-26T19:49:23.773Z,5.10
2023-02-26T19:51:50.737Z,5.10
2023-02-26T19:54:20.026Z,5.10
2023-02-26T19:56:49.502Z,5.10
2023-02-26T19:59:17.767Z,5.20
2023-02-26T20:01:46.588Z,5.10
2023-02-26T20:04:14.802Z,5.10
2023-02-26T20:06:42.146Z,5.20
2023-02-26T20:09:12.095Z,5.20
2023-02-26T20:11:40.599Z,5.20
2023-02-26T20:14:08.304Z,5.30
2023-02-26T20:16:35.329Z,5.30
2023-02-26T20:19:02.520Z,5.30
2023-02-26T20:21:29.470Z,5.30
2023-02-26T20:23:58.669Z,5.40
2023-02-26T20:26:27.540Z,5.40
2023-02-26T20:28:54.701Z,5.50
2023-02-26T20:31:21.808Z,5.50
2023-02-26T20:33:49.244Z,5.50
2023-02-26T20:36:18.001Z,5.60
2023-02-26T20:38:45.216Z,5.60
2023-02-26T20:41:12.365Z,5.60
2023-02-26T20:43:39.431Z,5.70
2023-02-26T20:46:06.846Z,5.70
2023-02-26T20:48:34.869Z,5.70
2023-02-26T20:51:05.504Z,5.70
2023-02-26T20:53:32.563Z,5.80
2023-02-26T20:56:00.204Z,5.80
2023-02-26T20:58:27.874Z,5.90
2023-02-26T21:00:59.205Z,5.90
2023-02-26T21:03:26.553Z,5.90
2023-02-26T21:05:55.140Z,5.90
2023-02-26T21:08:23.557Z,6.00
2023-02-26T21:10:53.791Z,5.90
2023-02-26T21:13:21.429Z,6.00
2023-02-26T21:15:51.072Z,6.00
2023-02-26T21:18:20.437Z,6.00
2023-02-26T21:20:49.174Z,6.00
2023-02-26T21:23:20.689Z,6.00
2023-02-26T21:25:47.711Z,6.00
2023-02-26T21:28:15.550Z,6.00
2023-02-26T21:30:42.630Z,6.00
2023-02-26T21:33:09.598Z,6.00
2023-02-26T21:35:37.752Z,6.00
2023-02-26T21:38:04.763Z,6.00
2023-02-26T21:40:32.048Z,6.00
2023-02-26T21:42:59.625Z,6.00
2023-02-26T21:45:28.084Z,6.00
2023-02-26T21:47:54.996Z,6.00
2023-02-26T21:50:22.272Z,6.00
2023-02-26T21:52:49.782Z,6.00
2023-02-26T21:55:18.046Z,6.00
2023-02-26T21:57:47.329Z,6.00
2023-02-26T22:00:16.137Z,6.00
2023-02-26T22:02:44.266Z,6.00
2023-02-26T22:05:12.283Z,6.00
2023-02-26T22:07:39.834Z,6.00
2023-02-26T22:10:09.936Z,6.00
2023-02-26T22:12:38.939Z,6.00
2023-02-26T22:15:07.909Z,6.00
2023-02-26T22:17:35.537Z,6.00
2023-02-26T22:20:06.277Z,6.00
2023-02-26T22:22:33.464Z,6.00
2023-02-26T22:25:02.966Z,6.00
2023-02-26T22:27:30.028Z,6.00
2023-02-26T22:29:58.668Z,6.00
2023-02-26T22:32:27.379Z,6.00
2023-02-26T22:34:55.953Z,6.00
2023-02-26T22:37:26.007Z,6.00
2023-02-26T22:39:53.452Z,6.00
2023-02-26T22:42:20.636Z,6.10
2023-02-26T22:44:48.609Z,6.10
2023-02-26T22:47:15.816Z,6.10
2023-02-26T22:49:42.771Z,6.00
2023-02-26T22:52:10.927Z,6.10
2023-02-26T22:54:39.049Z,6.10
2023-02-26T22:57:08.835Z,6.10
2023-02-26T22:59:37.349Z,6.10
2023-02-26T23:02:07.277Z,6.10
2023-02-26T23:04:34.701Z,6.10
2023-02-26T23:07:01.784Z,6.10
2023-02-26T23:09:30.069Z,6.10
2023-02-26T23:11:57.112Z,6.10
2023-02-26T23:14:24.145Z,6.10
2023-02-26T23:16:51.243Z,6.10
2023-02-26T23:19:18.404Z,6.20
2023-02-26T23:21:46.444Z,6.10
2023-02-26T23:24:16.886Z,6.10
2023-02-26T23:26:44.052Z,6.10
2023-02-26T23:29:14.448Z,6.10
2023-02-26T23:31:43.004Z,6.10
2023-02-26T23:34:13.384Z,6.20
2023-02-26T23:36:40.734Z,6.10
2023-02-26T23:39:08.676Z,6.10
2023-02-26T23:41:36.182Z,6.10
2023-02-26T23:44:03.273Z,6.10
2023-02-26T23:46:30.379Z,6.10
2023-02-26T23:48:58.117Z,6.10
2023-02-26T23:51:25.823Z,6.10
2023-02-26T23:53:53.114Z,6.00
2023-02-26T23:56:20.144Z,6.00
2023-02-26T23:58:47.662Z,6.00
